logo
Rechercher aéroport 
image banner adimage banner adimage banner ad
image banner ad

HADB - Degahabur

Situé à , Ethiopia

ICAO - , IATA - DGC

Données fournies par Airmate  

Information générale

Coordonnées: N8°13'60" E43°33'0"
Élévation : 3515 feet MSL.
 
Voir autres Aéroports à Somali

Données opérationnelles

Special qualification required
Heure actuelle UTC:
Heure actuelle locale:
Météo à : - ( 0 km )
METAR: PFSH 152026Z AUTO 16008KT 10SM SCT029 BKN035 OVC060 11/06 A2962 RMK AO2
Voir NOTAMs / SUP AIP / TFR affectant cet aéroport [VIEW]
Fréquences de communication: [VIEW]

Pistes:

Identifiant RWYQFULongueur (ft)Largeur (ft)SurfaceLDA (ft)
0800UNK
2600UNK

Coordonnées de l'aéroport

Adresse: Ethiopia

Vue satellite de HADB